Aviation Digital Data Service (ADDS)

Output produced by TAFs form (0453 UTC 30 March 2017)
found at http://www.aviationweather.gov/adds/tafs/
 
METAR text: RJCO 300035Z 13005KT 9000 -RA FEW015 BKN030 BKN050 03/01 Q1017 RMK 2ST015 5SC030 6SC050 A3005
Conditions at: RJCO (SAPPORO (JGSDF/C, JP) observed 0035 UTC 30 March 2017
Temperature: 3.0°C (37°F)
Dewpoint: 1.0°C (34°F) [RH = 87%]
Pressure (altimeter): 30.03 inches Hg (1017.0 mb)
Winds: from the SE (130 degrees) at 6 MPH (5 knots; 2.6 m/s)
Visibility: 6 miles (9 km)
Ceiling: 3000 feet AGL
Clouds: few clouds at 1500 feet AGL
broken clouds at 3000 feet AGL
broken clouds at 5000 feet AGL
Weather: -RA  (light rain)